createdAt,value
2022-08-05T00:00:00.293Z,97706.28
2022-08-05T00:02:07.642Z,97710.22
2022-08-05T00:04:14.459Z,97711.44
2022-08-05T00:06:27.846Z,97706.53
2022-08-05T00:08:35.717Z,97705.06
2022-08-05T00:10:39.435Z,97698.53
2022-08-05T00:12:48.558Z,97698.72
2022-08-05T00:15:54.176Z,97692.53
2022-08-05T00:17:24.458Z,97698.34
2022-08-05T00:19:33.145Z,97696.47
2022-08-05T00:21:37.088Z,97695.66
2022-08-05T00:23:46.934Z,97704.09
2022-08-05T00:25:57.146Z,97699.97
2022-08-05T00:28:00.345Z,97710.66
2022-08-05T00:30:05.239Z,97702.00
2022-08-05T00:32:14.929Z,97713.72
2022-08-05T00:34:55.585Z,97708.78
2022-08-05T00:37:11.418Z,97716.41
2022-08-05T00:39:05.000Z,97706.13
2022-08-05T00:41:11.771Z,97712.50
2022-08-05T00:43:15.290Z,97710.22
2022-08-05T00:45:38.034Z,97707.56
2022-08-05T00:47:56.985Z,97705.72
2022-08-05T00:50:06.575Z,97709.22
2022-08-05T00:52:09.576Z,97709.81
2022-08-05T00:54:15.096Z,97714.97
2022-08-05T00:56:22.965Z,97722.34
2022-08-05T00:58:27.394Z,97716.78
2022-08-05T01:00:32.854Z,97726.66
2022-08-05T01:02:37.180Z,97727.06
2022-08-05T01:04:42.025Z,97729.75
2022-08-05T01:06:47.831Z,97721.53
2022-08-05T01:08:52.311Z,97728.28
2022-08-05T01:10:58.096Z,97725.63
2022-08-05T01:13:13.244Z,97755.75
2022-08-05T01:15:36.458Z,97765.59
2022-08-05T01:17:46.853Z,97772.38
2022-08-05T01:20:04.592Z,97760.66
2022-08-05T01:22:28.093Z,97759.38
2022-08-05T01:24:46.196Z,97764.13
2022-08-05T01:27:00.861Z,97770.06
2022-08-05T01:29:31.118Z,97772.69
2022-08-05T01:31:44.728Z,97767.56
2022-08-05T01:33:53.526Z,97772.03
2022-08-05T01:35:58.213Z,97770.56
2022-08-05T01:38:03.892Z,97776.28
2022-08-05T01:40:09.091Z,97774.88
2022-08-05T01:42:15.306Z,97781.41
2022-08-05T01:44:19.897Z,97786.13
2022-08-05T01:46:42.668Z,97792.88
2022-08-05T01:48:50.113Z,97778.13
2022-08-05T01:50:53.606Z,97781.34
2022-08-05T01:52:59.080Z,97791.97
2022-08-05T01:55:05.650Z,97792.94
2022-08-05T01:58:12.771Z,97795.59
2022-08-05T01:59:35.439Z,97795.75
2022-08-05T02:01:40.784Z,97794.91
2022-08-05T02:03:46.423Z,97797.78
2022-08-05T02:05:50.335Z,97810.25
2022-08-05T02:08:01.174Z,97815.22
2022-08-05T02:10:05.969Z,97820.16
2022-08-05T02:12:14.965Z,97814.81
2022-08-05T02:14:22.683Z,97805.81
2022-08-05T02:16:29.339Z,97817.75
2022-08-05T02:18:37.974Z,97823.31
2022-08-05T02:20:49.261Z,97817.97
2022-08-05T02:22:57.783Z,97813.66
2022-08-05T02:25:04.787Z,97807.09
2022-08-05T02:27:10.560Z,97805.81
2022-08-05T02:29:24.112Z,97796.31
2022-08-05T02:31:34.672Z,97799.38
2022-08-05T02:33:43.235Z,97800.75
2022-08-05T02:35:55.963Z,97804.66
2022-08-05T02:38:02.834Z,97801.59
2022-08-05T02:40:07.106Z,97799.75
2022-08-05T02:42:22.498Z,97805.28
2022-08-05T02:44:30.263Z,97812.66
2022-08-05T02:46:33.845Z,97809.34
2022-08-05T02:48:39.653Z,97816.75
2022-08-05T02:50:50.394Z,97823.31
2022-08-05T02:52:54.353Z,97814.88
2022-08-05T02:55:02.019Z,97807.91
2022-08-05T02:58:10.176Z,97810.56
2022-08-05T02:59:50.355Z,97804.47
2022-08-05T03:01:58.377Z,97815.75
2022-08-05T03:04:14.363Z,97818.22
2022-08-05T03:06:56.094Z,97816.75
2022-08-05T03:08:43.216Z,97816.34
2022-08-05T03:11:45.922Z,97817.16
2022-08-05T03:13:16.744Z,97813.25
2022-08-05T03:15:21.451Z,97827.75
2022-08-05T03:17:27.439Z,97816.09
2022-08-05T03:19:36.131Z,97820.19
2022-08-05T03:21:41.620Z,97819.19
2022-08-05T03:23:52.527Z,97828.66
2022-08-05T03:26:30.409Z,97842.97
2022-08-05T03:28:19.908Z,97832.72
2022-08-05T03:30:30.294Z,97834.56
2022-08-05T03:32:37.379Z,97827.75
2022-08-05T03:34:42.422Z,97840.28
2022-08-05T03:36:54.411Z,97851.97
2022-08-05T03:38:57.509Z,97862.44
2022-08-05T03:41:00.752Z,97876.81
2022-08-05T03:43:58.825Z,97894.19
2022-08-05T03:45:58.383Z,97891.09
2022-08-05T03:47:58.363Z,97878.78
2022-08-05T03:50:02.948Z,97877.19
2022-08-05T03:52:48.603Z,97858.03
2022-08-05T03:55:52.150Z,97862.03
2022-08-05T03:57:00.842Z,97876.94
2022-08-05T03:59:29.048Z,97887.31
2022-08-05T04:01:51.198Z,97877.69
2022-08-05T04:04:05.434Z,97878.69
2022-08-05T04:06:15.412Z,97879.25
2022-08-05T04:08:30.245Z,97875.41
2022-08-05T04:10:39.356Z,97856.94
2022-08-05T04:14:46.036Z,97852.81
2022-08-05T04:16:49.162Z,97857.50
2022-08-05T04:18:53.905Z,97846.66
2022-08-05T04:20:59.313Z,97848.69
2022-08-05T04:23:03.804Z,97854.47
2022-08-05T04:25:08.232Z,97857.38
2022-08-05T04:27:15.330Z,97850.00
2022-08-05T04:29:19.938Z,97861.94
2022-08-05T04:31:23.062Z,97860.75
2022-08-05T04:34:18.549Z,97862.88
2022-08-05T04:36:16.440Z,97880.56
2022-08-05T04:38:18.768Z,97883.91
2022-08-05T04:40:22.092Z,97901.81
2022-08-05T04:42:25.586Z,97916.78
2022-08-05T04:44:29.898Z,97944.31
2022-08-05T04:46:33.748Z,97967.09
2022-08-05T04:48:36.817Z,97973.63
2022-08-05T04:51:01.649Z,97978.09
2022-08-05T04:53:04.986Z,97994.63
2022-08-05T04:55:14.263Z,97998.69
2022-08-05T04:57:18.460Z,98005.03
2022-08-05T04:59:26.669Z,98017.34
2022-08-05T05:02:35.231Z,98018.34
2022-08-05T05:04:05.560Z,98032.69
2022-08-05T05:06:40.163Z,98037.84
2022-08-05T05:08:34.357Z,98045.00
2022-08-05T05:10:55.731Z,98050.97
2022-08-05T05:12:59.585Z,98057.13
2022-08-05T05:15:10.907Z,98074.13
2022-08-05T05:17:14.199Z,98073.75
2022-08-05T05:19:19.250Z,98064.75
2022-08-05T05:21:27.180Z,98062.16
2022-08-05T05:24:02.286Z,98069.75
2022-08-05T05:25:54.969Z,98075.38
2022-08-05T05:27:59.396Z,98086.09
2022-08-05T05:30:04.284Z,98099.31
2022-08-05T05:32:12.555Z,98095.91
2022-08-05T05:34:24.163Z,98109.09
2022-08-05T05:36:30.501Z,98127.78
2022-08-05T05:38:34.706Z,98131.22
2022-08-05T05:40:37.782Z,98121.88
2022-08-05T05:42:48.740Z,98118.16
2022-08-05T05:44:52.293Z,98110.38
2022-08-05T05:47:04.335Z,98133.59
2022-08-05T05:49:22.640Z,98130.09
2022-08-05T05:51:27.861Z,98122.63
2022-08-05T05:53:31.289Z,98129.91
2022-08-05T05:56:00.998Z,98133.75
2022-08-05T05:58:07.544Z,98141.00
2022-08-05T06:00:16.096Z,98133.84
2022-08-05T06:02:36.719Z,98137.13
2022-08-05T06:04:40.989Z,98142.84
2022-08-05T06:06:48.961Z,98137.47
2022-08-05T06:08:52.208Z,98139.47
2022-08-05T06:10:56.740Z,98143.31
2022-08-05T06:12:59.958Z,98149.75
2022-08-05T06:15:05.865Z,98153.97
2022-08-05T06:17:22.388Z,98153.34
2022-08-05T06:19:35.686Z,98162.59
2022-08-05T06:21:42.927Z,98162.56
2022-08-05T06:23:53.989Z,98162.59
2022-08-05T06:26:12.943Z,98169.75
2022-08-05T06:28:21.219Z,98179.63
2022-08-05T06:30:27.340Z,98175.66
2022-08-05T06:32:31.205Z,98161.97
2022-08-05T06:34:34.345Z,98154.88
2022-08-05T06:36:57.472Z,98148.75
2022-08-05T06:39:03.249Z,98148.78
2022-08-05T06:41:07.989Z,98140.19
2022-08-05T06:43:51.731Z,98132.06
2022-08-05T06:45:44.839Z,98129.81
2022-08-05T06:48:13.803Z,98126.31
2022-08-05T06:50:22.120Z,98121.59
2022-08-05T06:52:36.942Z,98119.94
2022-08-05T06:54:40.844Z,98126.00
2022-08-05T06:56:55.047Z,98131.25
2022-08-05T06:59:09.512Z,98138.72
2022-08-05T07:01:16.543Z,98149.41
2022-08-05T07:03:32.336Z,98140.91
2022-08-05T07:05:37.169Z,98148.50
2022-08-05T07:07:43.885Z,98153.03
2022-08-05T07:09:47.188Z,98151.47
2022-08-05T07:12:00.208Z,98139.81
2022-08-05T07:14:29.455Z,98144.59
2022-08-05T07:18:02.125Z,98149.31
2022-08-05T07:19:31.819Z,98147.28
2022-08-05T07:22:01.158Z,98149.84
2022-08-05T07:24:02.575Z,98157.38
2022-08-05T07:26:06.104Z,98147.75
2022-08-05T07:28:11.597Z,98150.50
2022-08-05T07:30:22.801Z,98148.19
2022-08-05T07:32:36.319Z,98160.13
2022-08-05T07:34:42.313Z,98178.03
2022-08-05T07:36:46.111Z,98192.22
2022-08-05T07:38:55.150Z,98189.50
2022-08-05T07:41:01.457Z,98190.19
2022-08-05T07:43:20.686Z,98190.84
2022-08-05T07:45:43.387Z,98184.31
2022-08-05T07:47:49.030Z,98169.50
2022-08-05T07:49:58.793Z,98168.22
2022-08-05T07:52:02.244Z,98167.50
2022-08-05T07:54:08.419Z,98167.94
2022-08-05T07:57:00.645Z,98176.03
2022-08-05T07:58:55.012Z,98184.09
2022-08-05T08:00:59.334Z,98185.19
2022-08-05T08:03:14.756Z,98188.38
2022-08-05T08:05:18.870Z,98177.09
2022-08-05T08:07:23.383Z,98174.47
2022-08-05T08:09:29.201Z,98184.44
2022-08-05T08:11:48.262Z,98184.53
2022-08-05T08:14:01.189Z,98181.34
2022-08-05T08:16:34.999Z,98193.69
2022-08-05T08:18:29.273Z,98179.34
2022-08-05T08:20:44.574Z,98183.38
2022-08-05T08:22:57.105Z,98180.47
2022-08-05T08:25:03.420Z,98187.34
2022-08-05T08:27:07.601Z,98175.22
2022-08-05T08:29:45.339Z,98182.72
2022-08-05T08:31:34.448Z,98182.38
2022-08-05T08:33:40.648Z,98180.56
2022-08-05T08:35:53.884Z,98175.69
2022-08-05T08:38:07.353Z,98178.97
2022-08-05T08:40:11.448Z,98177.72
2022-08-05T08:42:32.505Z,98175.47
2022-08-05T08:45:23.923Z,98172.34
2022-08-05T08:47:46.794Z,98171.78
2022-08-05T08:50:22.230Z,98178.13
2022-08-05T08:52:06.018Z,98167.09
2022-08-05T08:54:17.478Z,98165.75
2022-08-05T08:56:22.170Z,98170.13
2022-08-05T08:58:26.052Z,98166.44
2022-08-05T09:00:41.313Z,98152.66
2022-08-05T09:02:46.520Z,98165.50
2022-08-05T09:05:16.752Z,98154.25
2022-08-05T09:07:19.724Z,98171.78
2022-08-05T09:09:35.360Z,98161.97
2022-08-05T09:11:51.005Z,98150.84
2022-08-05T09:14:10.203Z,98146.09
2022-08-05T09:16:20.614Z,98147.16
2022-08-05T09:18:27.647Z,98144.19
2022-08-05T09:20:37.793Z,98141.28
2022-08-05T09:23:18.900Z,98141.09
2022-08-05T09:25:24.484Z,98126.69
2022-08-05T09:28:05.139Z,98122.47
2022-08-05T09:30:16.407Z,98130.25
2022-08-05T09:32:42.205Z,98123.19
2022-08-05T09:34:50.717Z,98119.88
2022-08-05T09:36:59.744Z,98104.47
2022-08-05T09:39:18.562Z,98116.63
2022-08-05T09:41:25.470Z,98095.16
2022-08-05T09:43:40.618Z,98099.22
2022-08-05T09:46:07.802Z,98087.06
2022-08-05T09:48:21.250Z,98082.28
2022-08-05T09:50:38.790Z,98086.44
2022-08-05T09:52:58.691Z,98076.63
2022-08-05T09:55:06.434Z,98082.94
2022-08-05T09:57:35.403Z,98085.47
2022-08-05T09:59:42.792Z,98082.78
2022-08-05T10:01:47.342Z,98080.06
2022-08-05T10:03:59.404Z,98081.91
2022-08-05T10:06:14.701Z,98074.00
2022-08-05T10:08:36.632Z,98078.94
2022-08-05T10:10:50.380Z,98081.75
2022-08-05T10:12:58.956Z,98084.03
2022-08-05T10:15:17.192Z,98085.72
2022-08-05T10:17:37.354Z,98081.63
2022-08-05T10:20:03.205Z,98074.25
2022-08-05T10:22:06.223Z,98083.34
2022-08-05T10:24:14.064Z,98079.94
2022-08-05T10:26:18.540Z,98074.53
2022-08-05T10:28:29.122Z,98070.13
2022-08-05T10:31:20.728Z,98086.97
2022-08-05T10:33:02.455Z,98086.16
2022-08-05T10:35:06.880Z,98084.03
2022-08-05T10:37:10.336Z,98081.53
2022-08-05T10:39:24.984Z,98082.63
2022-08-05T10:41:48.784Z,98079.41
2022-08-05T10:43:57.392Z,98071.69
2022-08-05T10:46:06.568Z,98076.94
2022-08-05T10:48:40.627Z,98076.44
2022-08-05T10:51:00.192Z,98069.63
2022-08-05T10:53:03.947Z,98069.75
2022-08-05T10:55:11.094Z,98069.72
2022-08-05T10:57:30.814Z,98076.09
2022-08-05T11:00:03.553Z,98076.63
2022-08-05T11:02:08.706Z,98066.16
2022-08-05T11:04:19.131Z,98068.81
2022-08-05T11:09:32.167Z,98076.00
2022-08-05T11:11:52.551Z,98076.09
2022-08-05T11:13:58.314Z,98072.31
2022-08-05T11:16:22.450Z,98079.94
2022-08-05T11:18:37.255Z,98076.94
2022-08-05T11:20:51.488Z,98078.53
2022-08-05T11:22:58.018Z,98083.09
2022-08-05T11:26:05.895Z,98082.06
2022-08-05T11:28:00.741Z,98090.81
2022-08-05T11:30:05.222Z,98075.03
2022-08-05T11:32:28.285Z,98072.84
2022-08-05T11:34:39.559Z,98076.34
2022-08-05T11:36:52.601Z,98078.00
2022-08-05T11:38:57.779Z,98085.81
2022-08-05T11:41:34.315Z,98092.38
2022-08-05T11:43:58.439Z,98081.84
2022-08-05T11:46:27.322Z,98085.94
2022-08-05T11:48:13.969Z,98079.69
2022-08-05T11:50:17.967Z,98081.34
2022-08-05T11:52:29.669Z,98072.31
2022-08-05T11:54:34.928Z,98080.19
2022-08-05T11:56:50.152Z,98076.13
2022-08-05T11:58:54.982Z,98076.06
2022-08-05T12:01:04.765Z,98073.78
2022-08-05T12:03:28.610Z,98072.16
2022-08-05T12:05:39.822Z,98069.31
2022-08-05T12:08:09.295Z,98069.84
2022-08-05T12:10:11.410Z,98064.94
2022-08-05T12:12:22.470Z,98058.09
2022-08-05T12:14:38.918Z,98052.69
2022-08-05T12:16:47.898Z,98063.63
2022-08-05T12:18:53.026Z,98060.66
2022-08-05T12:20:56.827Z,98062.25
2022-08-05T12:23:09.339Z,98059.03
2022-08-05T12:25:14.244Z,98062.06
2022-08-05T12:27:25.545Z,98061.56
2022-08-05T12:29:38.045Z,98066.47
2022-08-05T12:31:50.121Z,98064.56
2022-08-05T12:33:58.208Z,98063.16
2022-08-05T12:36:02.503Z,98059.88
2022-08-05T12:38:07.187Z,98059.81
2022-08-05T12:40:26.475Z,98049.81
2022-08-05T12:42:30.671Z,98053.06
2022-08-05T12:44:35.173Z,98050.38
2022-08-05T12:46:39.640Z,98049.34
2022-08-05T12:48:44.109Z,98049.34
2022-08-05T12:51:21.757Z,98044.44
2022-08-05T12:53:36.947Z,98042.31
2022-08-05T12:55:42.387Z,98030.28
2022-08-05T12:58:38.274Z,98037.69
2022-08-05T13:01:59.712Z,98028.09
2022-08-05T13:02:47.143Z,98024.94
2022-08-05T13:04:54.720Z,98020.97
2022-08-05T13:06:59.349Z,98019.84
2022-08-05T13:09:09.030Z,98022.84
2022-08-05T13:11:59.709Z,98020.84
2022-08-05T13:14:06.784Z,98016.84
2022-08-05T13:16:05.455Z,98026.78
2022-08-05T13:18:09.253Z,98027.34
2022-08-05T13:20:20.387Z,98022.81
2022-08-05T13:22:29.637Z,98020.34
2022-08-05T13:24:51.146Z,98015.94
2022-08-05T13:26:56.229Z,98012.03
2022-08-05T13:29:01.059Z,98007.44
2022-08-05T13:31:11.125Z,98017.50
2022-08-05T13:34:23.989Z,98015.63
2022-08-05T13:35:47.427Z,98006.91
2022-08-05T13:37:55.479Z,98008.31
2022-08-05T13:40:13.682Z,97995.88
2022-08-05T13:42:18.208Z,97999.16
2022-08-05T13:44:21.730Z,98001.88
2022-08-05T13:46:50.767Z,98000.22
2022-08-05T13:48:58.835Z,97999.72
2022-08-05T13:51:09.559Z,97995.13
2022-08-05T13:53:15.929Z,97993.44
2022-08-05T13:55:40.765Z,97995.25
2022-08-05T13:57:48.728Z,97979.50
2022-08-05T13:59:57.350Z,97982.25
2022-08-05T14:02:03.564Z,97984.72
2022-08-05T14:04:26.749Z,97979.38
2022-08-05T14:06:31.578Z,97982.09
2022-08-05T14:08:35.943Z,97983.94
2022-08-05T14:10:39.550Z,97986.09
2022-08-05T14:12:48.791Z,97977.06
2022-08-05T14:14:52.110Z,97970.81
2022-08-05T14:16:55.457Z,97977.03
2022-08-05T14:19:04.496Z,97980.56
2022-08-05T14:22:07.344Z,97971.91
2022-08-05T14:23:36.710Z,97971.66
2022-08-05T14:25:44.902Z,97978.97
2022-08-05T14:27:49.369Z,97974.69
2022-08-05T14:29:52.393Z,97976.81
2022-08-05T14:32:12.431Z,97981.66
2022-08-05T14:34:18.753Z,97974.19
2022-08-05T14:36:26.657Z,97968.09
2022-08-05T14:38:34.025Z,97966.38
2022-08-05T14:40:40.157Z,97953.47
2022-08-05T14:42:47.048Z,97968.53
2022-08-05T14:44:52.066Z,97964.72
2022-08-05T14:46:55.079Z,97969.81
2022-08-05T14:49:06.411Z,97964.31
2022-08-05T14:51:11.191Z,97969.69
2022-08-05T14:53:14.360Z,97967.47
2022-08-05T14:55:17.434Z,97981.78
2022-08-05T14:57:23.294Z,97969.50
2022-08-05T14:59:37.043Z,97978.06
2022-08-05T15:01:48.431Z,97982.84
2022-08-05T15:03:52.492Z,97982.84
2022-08-05T15:06:07.695Z,97975.03
2022-08-05T15:08:58.444Z,97976.94
2022-08-05T15:10:41.445Z,97984.66
2022-08-05T15:13:00.229Z,97988.66
2022-08-05T15:15:04.740Z,97983.47
2022-08-05T15:17:45.553Z,97995.81
2022-08-05T15:19:39.759Z,97993.31
2022-08-05T15:21:52.055Z,97991.50
2022-08-05T15:23:55.114Z,97996.22
2022-08-05T15:26:02.751Z,97997.13
2022-08-05T15:28:07.877Z,98009.84
2022-08-05T15:30:16.913Z,98010.00
2022-08-05T15:32:19.863Z,98007.78
2022-08-05T15:34:31.890Z,98005.94
2022-08-05T15:36:36.441Z,98004.28
2022-08-05T15:38:41.748Z,98012.97
2022-08-05T15:41:03.710Z,98016.97
2022-08-05T15:43:19.573Z,98025.97
2022-08-05T15:45:38.146Z,98041.03
2022-08-05T15:47:43.144Z,98053.69
2022-08-05T15:49:56.720Z,98047.06
2022-08-05T15:52:04.179Z,98028.16
2022-08-05T15:54:17.305Z,98000.22
2022-08-05T15:56:20.608Z,97997.69
2022-08-05T15:58:25.278Z,97995.06
2022-08-05T16:00:50.237Z,98009.03
2022-08-05T16:02:53.334Z,98024.25
2022-08-05T16:04:56.632Z,98032.13
2022-08-05T16:06:59.775Z,98032.69
2022-08-05T16:09:03.425Z,98034.78
2022-08-05T16:11:06.814Z,98045.84
2022-08-05T16:13:11.176Z,98050.75
2022-08-05T16:15:18.621Z,98033.16
2022-08-05T16:17:22.733Z,98038.91
2022-08-05T16:20:05.692Z,98050.84
2022-08-05T16:22:00.686Z,98043.22
2022-08-05T16:24:07.676Z,98051.44
2022-08-05T16:26:30.556Z,98059.41
2022-08-05T16:28:34.085Z,98063.03
2022-08-05T16:30:38.859Z,98060.88
2022-08-05T16:32:42.106Z,98066.72
2022-08-05T16:34:47.560Z,98064.00
2022-08-05T16:36:54.143Z,98070.28
2022-08-05T16:38:58.225Z,98075.34
2022-08-05T16:42:12.767Z,98081.63
2022-08-05T16:43:30.228Z,98082.38
2022-08-05T16:46:04.753Z,98087.91
2022-08-05T16:48:02.581Z,98096.38
2022-08-05T16:50:07.004Z,98089.34
2022-08-05T16:52:11.710Z,98094.34
2022-08-05T16:54:25.838Z,98096.81
2022-08-05T16:56:33.707Z,98087.25
2022-08-05T16:58:39.400Z,98093.53
2022-08-05T17:00:42.608Z,98094.59
2022-08-05T17:02:50.390Z,98106.97
2022-08-05T17:04:55.759Z,98100.81
2022-08-05T17:07:01.047Z,98102.97
2022-08-05T17:09:05.779Z,98094.38
2022-08-05T17:11:12.838Z,98106.03
2022-08-05T17:13:21.370Z,98115.38
2022-08-05T17:15:47.976Z,98123.88
2022-08-05T17:17:54.960Z,98132.69
2022-08-05T17:19:59.839Z,98116.66
2022-08-05T17:22:03.891Z,98121.31
2022-08-05T17:24:27.978Z,98126.03
2022-08-05T17:26:31.955Z,98122.06
2022-08-05T17:28:36.747Z,98115.31
2022-08-05T17:30:50.755Z,98117.63
2022-08-05T17:32:55.675Z,98127.94
2022-08-05T17:35:00.452Z,98127.88
2022-08-05T17:37:04.625Z,98121.69
2022-08-05T17:39:34.140Z,98132.88
2022-08-05T17:42:17.520Z,98143.25
2022-08-05T17:44:00.963Z,98127.56
2022-08-05T17:46:06.716Z,98139.78
2022-08-05T17:48:13.297Z,98139.78
2022-08-05T17:50:27.723Z,98144.59
2022-08-05T17:52:32.577Z,98142.88
2022-08-05T17:54:37.408Z,98147.44
2022-08-05T17:56:40.492Z,98154.53
2022-08-05T17:58:47.656Z,98152.91
2022-08-05T18:00:51.150Z,98153.94
2022-08-05T18:02:54.536Z,98159.75
2022-08-05T18:04:57.596Z,98160.59
2022-08-05T18:07:03.333Z,98166.03
2022-08-05T18:09:09.549Z,98167.56
2022-08-05T18:11:23.913Z,98175.03
2022-08-05T18:13:29.684Z,98182.72
2022-08-05T18:15:40.023Z,98177.34
2022-08-05T18:18:01.117Z,98180.25
2022-08-05T18:20:07.626Z,98181.28
2022-08-05T18:22:19.627Z,98185.03
2022-08-05T18:24:27.389Z,98188.53
2022-08-05T18:26:32.141Z,98193.31
2022-08-05T18:28:36.018Z,98192.66
2022-08-05T18:30:40.328Z,98201.16
2022-08-05T18:32:53.362Z,98198.28
2022-08-05T18:34:57.050Z,98207.59
2022-08-05T18:37:00.234Z,98204.53
2022-08-05T18:39:09.747Z,98205.38
2022-08-05T18:41:58.404Z,98209.50
2022-08-05T18:43:52.684Z,98209.94
2022-08-05T18:45:56.176Z,98209.56
2022-08-05T18:48:00.097Z,98216.19
2022-08-05T18:50:20.810Z,98228.81
2022-08-05T18:52:51.007Z,98231.72
2022-08-05T18:54:56.140Z,98250.09
2022-08-05T18:56:59.633Z,98256.91
2022-08-05T18:59:44.255Z,98271.59
2022-08-05T19:01:33.244Z,98280.66
2022-08-05T19:03:55.542Z,98273.41
2022-08-05T19:06:13.287Z,98284.72
2022-08-05T19:08:30.767Z,98283.03
2022-08-05T19:10:37.477Z,98286.53
2022-08-05T19:12:40.821Z,98302.16
2022-08-05T19:15:00.715Z,98304.34
2022-08-05T19:17:06.438Z,98304.69
2022-08-05T19:19:10.858Z,98311.00
2022-08-05T19:21:16.301Z,98316.28
2022-08-05T19:24:04.140Z,98320.94
2022-08-05T19:25:43.912Z,98321.09
2022-08-05T19:27:47.827Z,98322.94
2022-08-05T19:29:56.588Z,98318.91
2022-08-05T19:32:01.632Z,98315.81
2022-08-05T19:34:04.754Z,98314.72
2022-08-05T19:36:09.759Z,98320.47
2022-08-05T19:38:24.067Z,98324.16
2022-08-05T19:40:29.835Z,98346.50
2022-08-05T19:42:36.299Z,98352.63
2022-08-05T19:44:44.918Z,98345.59
2022-08-05T19:46:50.109Z,98337.66
2022-08-05T19:48:53.527Z,98347.28
2022-08-05T19:50:57.179Z,98343.34
2022-08-05T19:53:10.667Z,98359.13
2022-08-05T19:56:15.023Z,98371.75
2022-08-05T19:57:47.616Z,98369.28
2022-08-05T20:00:04.438Z,98370.75
2022-08-05T20:02:14.480Z,98370.69
2022-08-05T20:04:17.545Z,98370.41
2022-08-05T20:06:29.179Z,98361.91
2022-08-05T20:08:32.483Z,98365.31
2022-08-05T20:10:36.089Z,98358.75
2022-08-05T20:12:47.658Z,98355.53
2022-08-05T20:14:52.304Z,98366.59
2022-08-05T20:16:55.892Z,98386.13
2022-08-05T20:18:59.715Z,98394.69
2022-08-05T20:21:06.799Z,98387.16
2022-08-05T20:23:10.117Z,98395.34
2022-08-05T20:25:15.490Z,98404.47
2022-08-05T20:27:18.768Z,98403.84
2022-08-05T20:29:27.950Z,98407.75
2022-08-05T20:31:42.102Z,98416.44
2022-08-05T20:33:46.939Z,98412.91
2022-08-05T20:35:50.575Z,98396.00
2022-08-05T20:38:05.759Z,98385.00
2022-08-05T20:40:12.033Z,98384.47
2022-08-05T20:42:15.065Z,98390.56
2022-08-05T20:44:30.689Z,98405.75
2022-08-05T20:46:35.432Z,98412.38
2022-08-05T20:48:40.385Z,98422.69
2022-08-05T20:50:46.955Z,98434.44
2022-08-05T20:52:50.136Z,98431.00
2022-08-05T20:55:23.503Z,98413.50
2022-08-05T20:57:42.145Z,98420.94
2022-08-05T21:00:10.510Z,98429.22
2022-08-05T21:02:06.688Z,98436.84
2022-08-05T21:04:10.920Z,98444.84
2022-08-05T21:06:28.412Z,98441.50
2022-08-05T21:08:41.604Z,98442.91
2022-08-05T21:10:48.496Z,98438.91
2022-08-05T21:12:57.929Z,98443.63
2022-08-05T21:15:12.406Z,98456.28
2022-08-05T21:17:17.333Z,98462.28
2022-08-05T21:19:20.377Z,98471.19
2022-08-05T21:21:26.571Z,98481.75
2022-08-05T21:23:43.197Z,98480.44
2022-08-05T21:25:46.254Z,98473.00
2022-08-05T21:27:52.928Z,98490.28
2022-08-05T21:29:56.538Z,98490.28
2022-08-05T21:31:59.783Z,98490.63
2022-08-05T21:34:05.158Z,98490.94
2022-08-05T21:36:10.613Z,98487.69
2022-08-05T21:38:14.566Z,98491.03
2022-08-05T21:40:20.209Z,98493.72
2022-08-05T21:42:41.013Z,98487.56
2022-08-05T21:44:46.457Z,98484.31
2022-08-05T21:46:50.240Z,98481.13
2022-08-05T21:48:56.745Z,98479.50
2022-08-05T21:51:01.315Z,98490.50
2022-08-05T21:53:16.287Z,98490.16
2022-08-05T21:56:00.865Z,98490.16
2022-08-05T21:57:43.039Z,98491.97
2022-08-05T22:00:03.259Z,98506.97
2022-08-05T22:02:15.603Z,98520.56
2022-08-05T22:04:19.367Z,98525.72
2022-08-05T22:06:35.247Z,98531.56
2022-08-05T22:08:42.987Z,98543.03
2022-08-05T22:10:46.066Z,98545.34
2022-08-05T22:12:50.661Z,98542.91
2022-08-05T22:14:54.720Z,98550.03
2022-08-05T22:17:03.976Z,98556.38
2022-08-05T22:19:15.157Z,98551.06
2022-08-05T22:21:32.888Z,98548.56
2022-08-05T22:24:02.815Z,98542.47
2022-08-05T22:26:29.142Z,98542.47
2022-08-05T22:28:32.435Z,98546.50
2022-08-05T22:30:37.503Z,98560.44
2022-08-05T22:32:56.553Z,98575.41
2022-08-05T22:35:01.243Z,98586.06
2022-08-05T22:37:07.380Z,98590.72
2022-08-05T22:39:12.699Z,98592.38
2022-08-05T22:41:16.031Z,98598.53
2022-08-05T22:43:40.550Z,98597.41
2022-08-05T22:45:43.742Z,98602.19
2022-08-05T22:47:49.958Z,98604.53
2022-08-05T22:50:20.364Z,98605.03
2022-08-05T22:52:32.378Z,98610.69
2022-08-05T22:54:37.723Z,98611.19
2022-08-05T22:56:41.981Z,98621.16
2022-08-05T22:58:45.293Z,98633.63
2022-08-05T23:00:48.311Z,98633.81
2022-08-05T23:02:53.402Z,98641.78
2022-08-05T23:04:56.780Z,98649.44
2022-08-05T23:06:59.991Z,98640.94
2022-08-05T23:09:27.194Z,98648.59
2022-08-05T23:11:27.988Z,98646.59
2022-08-05T23:13:34.076Z,98650.63
2022-08-05T23:15:37.810Z,98645.78
2022-08-05T23:18:01.601Z,98642.97
2022-08-05T23:20:10.414Z,98651.59
2022-08-05T23:22:20.558Z,98645.59
2022-08-05T23:24:32.030Z,98649.25
2022-08-05T23:26:35.245Z,98651.59
2022-08-05T23:28:43.139Z,98644.94
2022-08-05T23:30:53.195Z,98645.59
2022-08-05T23:32:57.086Z,98647.28
2022-08-05T23:35:00.606Z,98646.94
2022-08-05T23:37:03.830Z,98659.44
2022-08-05T23:39:09.938Z,98657.22
2022-08-05T23:41:21.935Z,98657.56
2022-08-05T23:44:02.760Z,98659.91
2022-08-05T23:45:50.153Z,98661.75
2022-08-05T23:47:59.335Z,98671.41
2022-08-05T23:50:02.701Z,98668.22
2022-08-05T23:52:27.751Z,98666.72
2022-08-05T23:54:38.206Z,98670.03
2022-08-05T23:56:42.966Z,98673.69
2022-08-05T23:58:46.583Z,98672.69
